Cleator, United Kingdom
Current Conditions -  °F | °C
As of 10:20 AM on Saturday 25 Oct 2014 (Local Time) from EGNS Reporting Station
Scattered Clouds Scattered Clouds  
Wind Chill: 55°   Ceiling: Unl
Heat Index: 55°   Visibility: 6mi
Dew Point: 46°   Wind: 26mph
Humidity: 72%   Direction: 240°WSW
Pressure: 29.83"   Gusts: 38mph
Location:  54.51°N, 3.53°W
Report Text: EGNS 250920Z 24023G33KT 210V280 9999 FEW020 SCT025 13/08 Q1010 NOSIG
Loading
Personal Weather Stations






























Interactive Weather Map
Tropical Storm Tracking
New forecast layout! Learn more

10-Day Weather Forecast

Advertisements
Track Severe Weather on mobile